sensor_id;sensor_type;location;lat;lon;timestamp;temperature;humidity
66144;SHT31;52947;50.842;6.084;2024-01-30T00:01:38;10.76;82.08
66144;SHT31;52947;50.842;6.084;2024-01-30T00:04:06;10.70;82.29
66144;SHT31;52947;50.842;6.084;2024-01-30T00:06:34;10.74;82.31
66144;SHT31;52947;50.842;6.084;2024-01-30T00:09:02;10.74;82.11
66144;SHT31;52947;50.842;6.084;2024-01-30T00:11:31;10.76;82.11
66144;SHT31;52947;50.842;6.084;2024-01-30T00:14:01;10.76;81.99
66144;SHT31;52947;50.842;6.084;2024-01-30T00:16:30;10.77;82.11
66144;SHT31;52947;50.842;6.084;2024-01-30T00:18:58;10.81;81.92
66144;SHT31;52947;50.842;6.084;2024-01-30T00:21:26;10.89;81.76
66144;SHT31;52947;50.842;6.084;2024-01-30T00:23:54;10.81;81.82
66144;SHT31;52947;50.842;6.084;2024-01-30T00:26:22;10.89;81.66
66144;SHT31;52947;50.842;6.084;2024-01-30T00:28:50;10.89;81.59
66144;SHT31;52947;50.842;6.084;2024-01-30T00:31:19;10.90;81.54
66144;SHT31;52947;50.842;6.084;2024-01-30T00:33:47;10.90;81.50
66144;SHT31;52947;50.842;6.084;2024-01-30T00:36:15;10.85;81.59
66144;SHT31;52947;50.842;6.084;2024-01-30T00:38:43;10.89;81.52
66144;SHT31;52947;50.842;6.084;2024-01-30T00:41:11;10.93;81.29
66144;SHT31;52947;50.842;6.084;2024-01-30T00:43:39;11.00;81.22
66144;SHT31;52947;50.842;6.084;2024-01-30T00:46:07;10.96;81.20
66144;SHT31;52947;50.842;6.084;2024-01-30T00:48:37;10.99;81.23
66144;SHT31;52947;50.842;6.084;2024-01-30T00:51:05;11.01;81.23
66144;SHT31;52947;50.842;6.084;2024-01-30T00:53:33;10.97;81.24
66144;SHT31;52947;50.842;6.084;2024-01-30T00:56:01;10.99;81.17
66144;SHT31;52947;50.842;6.084;2024-01-30T00:58:30;10.96;81.24
66144;SHT31;52947;50.842;6.084;2024-01-30T01:00:58;10.99;81.31
66144;SHT31;52947;50.842;6.084;2024-01-30T01:03:26;10.97;81.38
66144;SHT31;52947;50.842;6.084;2024-01-30T01:05:55;11.04;81.94
66144;SHT31;52947;50.842;6.084;2024-01-30T01:08:24;11.24;83.84
66144;SHT31;52947;50.842;6.084;2024-01-30T01:10:51;11.28;81.19
66144;SHT31;52947;50.842;6.084;2024-01-30T01:13:19;11.39;81.85
66144;SHT31;52947;50.842;6.084;2024-01-30T01:15:47;11.46;82.15
66144;SHT31;52947;50.842;6.084;2024-01-30T01:18:15;11.55;81.61
66144;SHT31;52947;50.842;6.084;2024-01-30T01:20:43;11.39;80.98
66144;SHT31;52947;50.842;6.084;2024-01-30T01:23:13;11.36;81.53
66144;SHT31;52947;50.842;6.084;2024-01-30T01:25:41;11.38;81.50
66144;SHT31;52947;50.842;6.084;2024-01-30T01:28:09;11.41;81.18
66144;SHT31;52947;50.842;6.084;2024-01-30T01:30:37;11.41;81.04
66144;SHT31;52947;50.842;6.084;2024-01-30T01:33:06;11.42;80.79
66144;SHT31;52947;50.842;6.084;2024-01-30T01:35:34;11.41;81.14
66144;SHT31;52947;50.842;6.084;2024-01-30T01:38:02;11.38;81.26
66144;SHT31;52947;50.842;6.084;2024-01-30T01:40:31;11.38;80.92
66144;SHT31;52947;50.842;6.084;2024-01-30T01:43:03;11.45;81.57
66144;SHT31;52947;50.842;6.084;2024-01-30T01:45:32;11.35;81.44
66144;SHT31;52947;50.842;6.084;2024-01-30T01:48:00;11.43;81.03
66144;SHT31;52947;50.842;6.084;2024-01-30T01:50:28;11.45;80.98
66144;SHT31;52947;50.842;6.084;2024-01-30T01:52:57;11.39;81.18
66144;SHT31;52947;50.842;6.084;2024-01-30T01:55:26;11.38;81.09
66144;SHT31;52947;50.842;6.084;2024-01-30T01:57:56;11.30;81.10
66144;SHT31;52947;50.842;6.084;2024-01-30T02:00:25;11.30;81.65
66144;SHT31;52947;50.842;6.084;2024-01-30T02:02:54;11.27;81.60
66144;SHT31;52947;50.842;6.084;2024-01-30T02:05:22;11.20;81.03
66144;SHT31;52947;50.842;6.084;2024-01-30T02:07:52;11.12;81.27
66144;SHT31;52947;50.842;6.084;2024-01-30T02:10:20;11.03;81.59
66144;SHT31;52947;50.842;6.084;2024-01-30T02:12:48;11.03;81.61
66144;SHT31;52947;50.842;6.084;2024-01-30T02:15:18;11.01;81.67
66144;SHT31;52947;50.842;6.084;2024-01-30T02:17:46;11.00;81.76
66144;SHT31;52947;50.842;6.084;2024-01-30T02:20:14;10.99;81.84
66144;SHT31;52947;50.842;6.084;2024-01-30T02:22:44;11.00;81.88
66144;SHT31;52947;50.842;6.084;2024-01-30T02:25:13;11.04;81.75
66144;SHT31;52947;50.842;6.084;2024-01-30T02:27:41;11.06;81.77
66144;SHT31;52947;50.842;6.084;2024-01-30T02:30:10;11.12;81.59
66144;SHT31;52947;50.842;6.084;2024-01-30T02:32:38;11.08;81.67
66144;SHT31;52947;50.842;6.084;2024-01-30T02:35:06;11.08;81.70
66144;SHT31;52947;50.842;6.084;2024-01-30T02:37:34;11.12;81.64
66144;SHT31;52947;50.842;6.084;2024-01-30T02:40:05;11.14;81.69
66144;SHT31;52947;50.842;6.084;2024-01-30T02:42:33;11.10;81.70
66144;SHT31;52947;50.842;6.084;2024-01-30T02:45:01;11.10;81.74
66144;SHT31;52947;50.842;6.084;2024-01-30T02:47:29;11.10;81.75
66144;SHT31;52947;50.842;6.084;2024-01-30T02:49:57;11.12;81.77
66144;SHT31;52947;50.842;6.084;2024-01-30T02:52:25;11.14;81.81
66144;SHT31;52947;50.842;6.084;2024-01-30T02:54:53;11.12;81.73
66144;SHT31;52947;50.842;6.084;2024-01-30T02:57:23;11.12;81.82
66144;SHT31;52947;50.842;6.084;2024-01-30T02:59:51;11.15;81.75
66144;SHT31;52947;50.842;6.084;2024-01-30T03:02:19;11.10;81.98
66144;SHT31;52947;50.842;6.084;2024-01-30T03:04:47;11.15;81.96
66144;SHT31;52947;50.842;6.084;2024-01-30T03:07:15;11.12;81.92
66144;SHT31;52947;50.842;6.084;2024-01-30T03:09:44;11.04;82.18
66144;SHT31;52947;50.842;6.084;2024-01-30T03:12:12;10.99;82.30
66144;SHT31;52947;50.842;6.084;2024-01-30T03:14:41;10.96;82.28
66144;SHT31;52947;50.842;6.084;2024-01-30T03:17:09;10.93;82.64
66144;SHT31;52947;50.842;6.084;2024-01-30T03:19:37;10.87;82.77
66144;SHT31;52947;50.842;6.084;2024-01-30T03:22:05;10.73;83.02
66144;SHT31;52947;50.842;6.084;2024-01-30T03:24:34;10.73;83.30
66144;SHT31;52947;50.842;6.084;2024-01-30T03:27:02;10.83;83.06
66144;SHT31;52947;50.842;6.084;2024-01-30T03:29:30;10.84;82.83
66144;SHT31;52947;50.842;6.084;2024-01-30T03:31:59;10.83;83.09
66144;SHT31;52947;50.842;6.084;2024-01-30T03:34:27;10.84;83.08
66144;SHT31;52947;50.842;6.084;2024-01-30T03:36:55;10.84;83.05
66144;SHT31;52947;50.842;6.084;2024-01-30T03:39:24;10.79;83.37
66144;SHT31;52947;50.842;6.084;2024-01-30T03:41:52;10.76;83.46
66144;SHT31;52947;50.842;6.084;2024-01-30T03:44:20;10.80;83.64
66144;SHT31;52947;50.842;6.084;2024-01-30T03:46:48;10.77;83.63
66144;SHT31;52947;50.842;6.084;2024-01-30T03:49:17;10.73;83.75
66144;SHT31;52947;50.842;6.084;2024-01-30T03:51:46;10.67;84.01
66144;SHT31;52947;50.842;6.084;2024-01-30T03:54:15;10.63;84.22
66144;SHT31;52947;50.842;6.084;2024-01-30T03:56:43;10.61;84.15
66144;SHT31;52947;50.842;6.084;2024-01-30T03:59:11;10.66;84.32
66144;SHT31;52947;50.842;6.084;2024-01-30T04:01:39;10.63;84.52
66144;SHT31;52947;50.842;6.084;2024-01-30T04:04:07;10.64;84.39
66144;SHT31;52947;50.842;6.084;2024-01-30T04:06:37;10.76;84.36
66144;SHT31;52947;50.842;6.084;2024-01-30T04:09:05;10.84;84.11
66144;SHT31;52947;50.842;6.084;2024-01-30T04:11:33;10.91;83.85
66144;SHT31;52947;50.842;6.084;2024-01-30T04:14:01;10.94;83.92
66144;SHT31;52947;50.842;6.084;2024-01-30T04:16:29;10.97;83.76
66144;SHT31;52947;50.842;6.084;2024-01-30T04:18:58;10.94;83.83
66144;SHT31;52947;50.842;6.084;2024-01-30T04:21:26;11.00;83.86
66144;SHT31;52947;50.842;6.084;2024-01-30T04:23:55;11.07;83.75
66144;SHT31;52947;50.842;6.084;2024-01-30T04:26:24;11.04;83.86
66144;SHT31;52947;50.842;6.084;2024-01-30T04:28:52;11.06;83.78
66144;SHT31;52947;50.842;6.084;2024-01-30T04:31:20;11.06;83.81
66144;SHT31;52947;50.842;6.084;2024-01-30T04:33:48;11.00;84.04
66144;SHT31;52947;50.842;6.084;2024-01-30T04:36:17;11.01;84.16
66144;SHT31;52947;50.842;6.084;2024-01-30T04:38:45;10.97;84.21
66144;SHT31;52947;50.842;6.084;2024-01-30T04:41:14;11.04;84.44
66144;SHT31;52947;50.842;6.084;2024-01-30T04:43:42;11.24;85.42
66144;SHT31;52947;50.842;6.084;2024-01-30T04:46:10;11.38;84.10
66144;SHT31;52947;50.842;6.084;2024-01-30T04:48:38;11.39;84.31
66144;SHT31;52947;50.842;6.084;2024-01-30T04:51:06;11.38;83.94
66144;SHT31;52947;50.842;6.084;2024-01-30T04:53:34;11.42;84.38
66144;SHT31;52947;50.842;6.084;2024-01-30T04:56:02;11.51;84.08
66144;SHT31;52947;50.842;6.084;2024-01-30T04:58:32;11.41;84.02
66144;SHT31;52947;50.842;6.084;2024-01-30T05:01:00;11.35;84.14
66144;SHT31;52947;50.842;6.084;2024-01-30T05:03:28;11.59;83.95
66144;SHT31;52947;50.842;6.084;2024-01-30T05:05:56;11.43;83.39
66144;SHT31;52947;50.842;6.084;2024-01-30T05:08:24;11.25;84.08
66144;SHT31;52947;50.842;6.084;2024-01-30T05:10:52;11.17;84.62
66144;SHT31;52947;50.842;6.084;2024-01-30T05:13:20;11.15;84.78
66144;SHT31;52947;50.842;6.084;2024-01-30T05:15:49;11.11;84.90
66144;SHT31;52947;50.842;6.084;2024-01-30T05:18:17;11.14;85.02
66144;SHT31;52947;50.842;6.084;2024-01-30T05:20:45;11.20;84.94
66144;SHT31;52947;50.842;6.084;2024-01-30T05:23:13;11.22;84.83
66144;SHT31;52947;50.842;6.084;2024-01-30T05:25:41;11.21;84.97
66144;SHT31;52947;50.842;6.084;2024-01-30T05:28:09;11.25;84.83
66144;SHT31;52947;50.842;6.084;2024-01-30T05:30:37;11.22;84.92
66144;SHT31;52947;50.842;6.084;2024-01-30T05:33:07;11.27;84.89
66144;SHT31;52947;50.842;6.084;2024-01-30T05:35:35;11.28;84.89
66144;SHT31;52947;50.842;6.084;2024-01-30T05:38:03;11.25;84.94
66144;SHT31;52947;50.842;6.084;2024-01-30T05:40:31;11.30;84.90
66144;SHT31;52947;50.842;6.084;2024-01-30T05:42:59;11.28;84.98
66144;SHT31;52947;50.842;6.084;2024-01-30T05:45:29;11.36;84.90
66144;SHT31;52947;50.842;6.084;2024-01-30T05:47:57;11.38;84.93
66144;SHT31;52947;50.842;6.084;2024-01-30T05:50:27;11.43;84.88
66144;SHT31;52947;50.842;6.084;2024-01-30T05:52:55;11.43;84.92
66144;SHT31;52947;50.842;6.084;2024-01-30T05:55:23;11.42;84.88
66144;SHT31;52947;50.842;6.084;2024-01-30T05:57:51;11.45;85.01
66144;SHT31;52947;50.842;6.084;2024-01-30T06:00:19;11.49;84.83
66144;SHT31;52947;50.842;6.084;2024-01-30T06:02:48;11.51;84.86
66144;SHT31;52947;50.842;6.084;2024-01-30T06:05:16;11.49;84.85
66144;SHT31;52947;50.842;6.084;2024-01-30T06:07:45;11.46;84.99
66144;SHT31;52947;50.842;6.084;2024-01-30T06:10:13;11.42;84.99
66144;SHT31;52947;50.842;6.084;2024-01-30T06:12:42;11.38;85.17
66144;SHT31;52947;50.842;6.084;2024-01-30T06:15:10;11.43;85.15
66144;SHT31;52947;50.842;6.084;2024-01-30T06:17:39;11.43;85.05
66144;SHT31;52947;50.842;6.084;2024-01-30T06:20:07;11.42;85.16
66144;SHT31;52947;50.842;6.084;2024-01-30T06:22:35;11.42;85.22
66144;SHT31;52947;50.842;6.084;2024-01-30T06:25:05;11.43;85.24
66144;SHT31;52947;50.842;6.084;2024-01-30T06:27:33;11.42;85.20
66144;SHT31;52947;50.842;6.084;2024-01-30T06:30:02;11.43;85.15
66144;SHT31;52947;50.842;6.084;2024-01-30T06:32:30;11.41;85.20
66144;SHT31;52947;50.842;6.084;2024-01-30T06:35:01;11.43;85.14
66144;SHT31;52947;50.842;6.084;2024-01-30T06:37:29;11.42;85.10
66144;SHT31;52947;50.842;6.084;2024-01-30T06:39:57;11.43;85.15
66144;SHT31;52947;50.842;6.084;2024-01-30T06:42:27;11.41;85.13
66144;SHT31;52947;50.842;6.084;2024-01-30T06:44:55;11.46;84.88
66144;SHT31;52947;50.842;6.084;2024-01-30T06:47:23;11.48;84.77
66144;SHT31;52947;50.842;6.084;2024-01-30T06:49:51;11.49;84.67
66144;SHT31;52947;50.842;6.084;2024-01-30T06:52:19;11.51;84.55
66144;SHT31;52947;50.842;6.084;2024-01-30T06:54:47;11.43;84.62
66144;SHT31;52947;50.842;6.084;2024-01-30T06:57:15;11.43;84.62
66144;SHT31;52947;50.842;6.084;2024-01-30T06:59:44;11.41;84.52
66144;SHT31;52947;50.842;6.084;2024-01-30T07:02:13;11.43;84.41
66144;SHT31;52947;50.842;6.084;2024-01-30T07:04:41;11.42;84.38
66144;SHT31;52947;50.842;6.084;2024-01-30T07:07:13;11.43;84.20
66144;SHT31;52947;50.842;6.084;2024-01-30T07:09:42;11.46;84.13
66144;SHT31;52947;50.842;6.084;2024-01-30T07:12:10;11.45;84.14
66144;SHT31;52947;50.842;6.084;2024-01-30T07:14:38;11.43;84.14
66144;SHT31;52947;50.842;6.084;2024-01-30T07:17:07;11.38;84.26
66144;SHT31;52947;50.842;6.084;2024-01-30T07:19:36;11.49;83.70
66144;SHT31;52947;50.842;6.084;2024-01-30T07:22:04;11.51;83.70
66144;SHT31;52947;50.842;6.084;2024-01-30T07:24:32;11.55;83.56
66144;SHT31;52947;50.842;6.084;2024-01-30T07:27:00;11.49;83.55
66144;SHT31;52947;50.842;6.084;2024-01-30T07:29:28;11.65;83.05
66144;SHT31;52947;50.842;6.084;2024-01-30T07:31:56;11.73;82.75
66144;SHT31;52947;50.842;6.084;2024-01-30T07:34:26;11.72;82.64
66144;SHT31;52947;50.842;6.084;2024-01-30T07:36:54;11.68;82.81
66144;SHT31;52947;50.842;6.084;2024-01-30T07:39:22;11.68;82.74
66144;SHT31;52947;50.842;6.084;2024-01-30T07:41:50;11.65;82.80
66144;SHT31;52947;50.842;6.084;2024-01-30T07:44:18;11.65;82.65
66144;SHT31;52947;50.842;6.084;2024-01-30T07:46:46;11.68;82.62
66144;SHT31;52947;50.842;6.084;2024-01-30T07:49:14;11.66;82.70
66144;SHT31;52947;50.842;6.084;2024-01-30T07:51:44;11.61;82.69
66144;SHT31;52947;50.842;6.084;2024-01-30T07:54:12;11.61;82.73
66144;SHT31;52947;50.842;6.084;2024-01-30T07:56:44;11.63;82.57
66144;SHT31;52947;50.842;6.084;2024-01-30T07:59:12;11.55;82.75
66144;SHT31;52947;50.842;6.084;2024-01-30T08:01:41;11.68;82.81
66144;SHT31;52947;50.842;6.084;2024-01-30T08:04:09;12.03;83.30
66144;SHT31;52947;50.842;6.084;2024-01-30T08:06:37;12.14;81.81
66144;SHT31;52947;50.842;6.084;2024-01-30T08:09:10;12.23;81.76
66144;SHT31;52947;50.842;6.084;2024-01-30T08:11:38;12.43;82.37
66144;SHT31;52947;50.842;6.084;2024-01-30T08:14:06;12.54;81.19
66144;SHT31;52947;50.842;6.084;2024-01-30T08:16:34;12.50;80.92
66144;SHT31;52947;50.842;6.084;2024-01-30T08:19:02;12.60;81.38
66144;SHT31;52947;50.842;6.084;2024-01-30T08:21:31;12.41;80.94
66144;SHT31;52947;50.842;6.084;2024-01-30T08:24:06;12.27;80.67
66144;SHT31;52947;50.842;6.084;2024-01-30T08:26:36;12.36;81.21
66144;SHT31;52947;50.842;6.084;2024-01-30T08:29:04;12.40;81.02
66144;SHT31;52947;50.842;6.084;2024-01-30T08:31:32;12.41;80.67
66144;SHT31;52947;50.842;6.084;2024-01-30T08:34:00;12.30;80.99
66144;SHT31;52947;50.842;6.084;2024-01-30T08:36:28;12.34;81.73
66144;SHT31;52947;50.842;6.084;2024-01-30T08:38:56;12.33;81.05
66144;SHT31;52947;50.842;6.084;2024-01-30T08:41:29;12.33;82.02
66144;SHT31;52947;50.842;6.084;2024-01-30T08:43:59;12.72;81.48
66144;SHT31;52947;50.842;6.084;2024-01-30T08:46:27;12.81;80.54
66144;SHT31;52947;50.842;6.084;2024-01-30T08:48:55;12.57;80.58
66144;SHT31;52947;50.842;6.084;2024-01-30T08:51:23;12.48;81.22
66144;SHT31;52947;50.842;6.084;2024-01-30T08:53:51;12.47;80.34
66144;SHT31;52947;50.842;6.084;2024-01-30T08:56:19;12.50;80.59
66144;SHT31;52947;50.842;6.084;2024-01-30T08:58:47;12.48;81.24
66144;SHT31;52947;50.842;6.084;2024-01-30T09:01:16;12.43;80.76
66144;SHT31;52947;50.842;6.084;2024-01-30T09:03:45;12.53;80.43
66144;SHT31;52947;50.842;6.084;2024-01-30T09:06:13;12.45;80.93
66144;SHT31;52947;50.842;6.084;2024-01-30T09:08:41;12.54;80.86
66144;SHT31;52947;50.842;6.084;2024-01-30T09:11:10;12.53;80.34
66144;SHT31;52947;50.842;6.084;2024-01-30T09:13:38;12.57;80.53
66144;SHT31;52947;50.842;6.084;2024-01-30T09:16:06;12.60;80.29
66144;SHT31;52947;50.842;6.084;2024-01-30T09:18:36;12.74;80.36
66144;SHT31;52947;50.842;6.084;2024-01-30T09:21:04;12.68;79.99
66144;SHT31;52947;50.842;6.084;2024-01-30T09:23:32;12.51;80.52
66144;SHT31;52947;50.842;6.084;2024-01-30T09:26:00;12.47;81.06
66144;SHT31;52947;50.842;6.084;2024-01-30T09:28:28;12.55;80.97
66144;SHT31;52947;50.842;6.084;2024-01-30T09:30:57;12.54;81.15
66144;SHT31;52947;50.842;6.084;2024-01-30T09:33:25;12.60;80.99
66144;SHT31;52947;50.842;6.084;2024-01-30T09:35:54;12.60;81.13
66144;SHT31;52947;50.842;6.084;2024-01-30T09:38:22;12.57;81.45
66144;SHT31;52947;50.842;6.084;2024-01-30T09:40:54;12.58;81.50
66144;SHT31;52947;50.842;6.084;2024-01-30T09:43:23;12.64;81.67
66144;SHT31;52947;50.842;6.084;2024-01-30T09:45:54;12.65;81.45
66144;SHT31;52947;50.842;6.084;2024-01-30T09:48:24;12.61;81.43
66144;SHT31;52947;50.842;6.084;2024-01-30T09:50:54;12.57;81.45
66144;SHT31;52947;50.842;6.084;2024-01-30T09:53:23;12.60;81.66
66144;SHT31;52947;50.842;6.084;2024-01-30T09:55:52;12.58;81.70
66144;SHT31;52947;50.842;6.084;2024-01-30T09:58:20;12.61;81.48
66144;SHT31;52947;50.842;6.084;2024-01-30T10:00:49;12.61;81.62
66144;SHT31;52947;50.842;6.084;2024-01-30T10:03:17;12.58;81.68
66144;SHT31;52947;50.842;6.084;2024-01-30T10:05:50;12.55;81.87
66144;SHT31;52947;50.842;6.084;2024-01-30T10:08:20;12.48;82.25
66144;SHT31;52947;50.842;6.084;2024-01-30T10:10:49;12.45;82.29
66144;SHT31;52947;50.842;6.084;2024-01-30T10:13:17;12.47;82.21
66144;SHT31;52947;50.842;6.084;2024-01-30T10:15:47;12.36;82.45
66144;SHT31;52947;50.842;6.084;2024-01-30T10:18:15;12.38;82.48
66144;SHT31;52947;50.842;6.084;2024-01-30T10:20:43;12.37;82.64
66144;SHT31;52947;50.842;6.084;2024-01-30T10:23:11;12.34;82.62
66144;SHT31;52947;50.842;6.084;2024-01-30T10:25:41;12.34;82.77
66144;SHT31;52947;50.842;6.084;2024-01-30T10:28:09;12.38;82.79
66144;SHT31;52947;50.842;6.084;2024-01-30T10:30:37;12.38;82.82
66144;SHT31;52947;50.842;6.084;2024-01-30T10:33:05;12.47;82.58
66144;SHT31;52947;50.842;6.084;2024-01-30T10:35:33;12.53;82.54
66144;SHT31;52947;50.842;6.084;2024-01-30T10:38:02;12.67;82.43
66144;SHT31;52947;50.842;6.084;2024-01-30T10:40:31;13.29;80.83
66144;SHT31;52947;50.842;6.084;2024-01-30T10:43:01;13.71;80.24
66144;SHT31;52947;50.842;6.084;2024-01-30T10:45:31;14.52;77.99
66144;SHT31;52947;50.842;6.084;2024-01-30T10:47:59;14.04;79.15
66144;SHT31;52947;50.842;6.084;2024-01-30T10:50:30;13.98;79.47
66144;SHT31;52947;50.842;6.084;2024-01-30T10:53:00;14.03;79.44
66144;SHT31;52947;50.842;6.084;2024-01-30T10:55:29;13.71;80.62
66144;SHT31;52947;50.842;6.084;2024-01-30T10:57:58;13.50;81.71
66144;SHT31;52947;50.842;6.084;2024-01-30T11:00:28;13.35;82.51
66144;SHT31;52947;50.842;6.084;2024-01-30T11:02:56;13.30;82.65
66144;SHT31;52947;50.842;6.084;2024-01-30T11:05:24;13.35;82.73
66144;SHT31;52947;50.842;6.084;2024-01-30T11:07:59;13.11;83.79
66144;SHT31;52947;50.842;6.084;2024-01-30T11:10:44;12.91;84.38
66144;SHT31;52947;50.842;6.084;2024-01-30T11:13:13;12.71;84.63
66144;SHT31;52947;50.842;6.084;2024-01-30T11:15:43;12.57;84.99
66144;SHT31;52947;50.842;6.084;2024-01-30T11:18:11;12.50;85.33
66144;SHT31;52947;50.842;6.084;2024-01-30T11:20:46;12.45;85.16
66144;SHT31;52947;50.842;6.084;2024-01-30T11:23:14;12.47;85.15
66144;SHT31;52947;50.842;6.084;2024-01-30T11:25:43;12.47;85.49
66144;SHT31;52947;50.842;6.084;2024-01-30T11:28:15;12.50;85.42
66144;SHT31;52947;50.842;6.084;2024-01-30T11:30:44;12.57;85.40
66144;SHT31;52947;50.842;6.084;2024-01-30T11:33:14;12.50;85.53
66144;SHT31;52947;50.842;6.084;2024-01-30T11:35:44;12.50;85.71
66144;SHT31;52947;50.842;6.084;2024-01-30T11:38:14;12.37;86.13
66144;SHT31;52947;50.842;6.084;2024-01-30T11:40:43;12.19;86.45
66144;SHT31;52947;50.842;6.084;2024-01-30T11:43:11;12.10;86.80
66144;SHT31;52947;50.842;6.084;2024-01-30T11:45:39;11.97;87.39
66144;SHT31;52947;50.842;6.084;2024-01-30T11:48:11;11.93;87.53
66144;SHT31;52947;50.842;6.084;2024-01-30T11:50:40;11.78;87.86
66144;SHT31;52947;50.842;6.084;2024-01-30T11:53:08;11.78;88.16
66144;SHT31;52947;50.842;6.084;2024-01-30T11:55:36;11.79;88.00
66144;SHT31;52947;50.842;6.084;2024-01-30T11:58:05;11.82;88.00
66144;SHT31;52947;50.842;6.084;2024-01-30T12:00:33;11.81;87.98
66144;SHT31;52947;50.842;6.084;2024-01-30T12:03:03;11.73;88.07
66144;SHT31;52947;50.842;6.084;2024-01-30T12:05:34;11.78;88.21
66144;SHT31;52947;50.842;6.084;2024-01-30T12:08:04;11.83;88.01
66144;SHT31;52947;50.842;6.084;2024-01-30T12:10:32;11.81;87.99
66144;SHT31;52947;50.842;6.084;2024-01-30T12:13:01;11.79;88.10
66144;SHT31;52947;50.842;6.084;2024-01-30T12:15:30;11.86;88.05
66144;SHT31;52947;50.842;6.084;2024-01-30T12:18:04;11.85;87.91
66144;SHT31;52947;50.842;6.084;2024-01-30T12:20:35;11.78;88.25
66144;SHT31;52947;50.842;6.084;2024-01-30T12:23:04;11.83;88.09
66144;SHT31;52947;50.842;6.084;2024-01-30T12:25:32;11.75;88.10
66144;SHT31;52947;50.842;6.084;2024-01-30T12:28:00;11.73;88.35
66144;SHT31;52947;50.842;6.084;2024-01-30T12:30:29;11.72;88.46
66144;SHT31;52947;50.842;6.084;2024-01-30T12:32:57;11.75;88.55
66144;SHT31;52947;50.842;6.084;2024-01-30T12:35:25;11.71;88.68
66144;SHT31;52947;50.842;6.084;2024-01-30T12:37:59;11.65;88.82
66144;SHT31;52947;50.842;6.084;2024-01-30T12:40:27;11.68;88.90
66144;SHT31;52947;50.842;6.084;2024-01-30T12:42:57;11.63;89.01
66144;SHT31;52947;50.842;6.084;2024-01-30T12:45:25;11.65;89.00
66144;SHT31;52947;50.842;6.084;2024-01-30T12:47:53;11.66;88.98
66144;SHT31;52947;50.842;6.084;2024-01-30T12:50:22;11.65;88.96
66144;SHT31;52947;50.842;6.084;2024-01-30T12:52:50;11.62;89.19
66144;SHT31;52947;50.842;6.084;2024-01-30T12:55:19;11.61;89.17
66144;SHT31;52947;50.842;6.084;2024-01-30T12:57:47;11.54;89.27
66144;SHT31;52947;50.842;6.084;2024-01-30T13:00:15;11.57;89.20
66144;SHT31;52947;50.842;6.084;2024-01-30T13:02:44;11.58;89.36
66144;SHT31;52947;50.842;6.084;2024-01-30T13:05:12;11.55;89.35
66144;SHT31;52947;50.842;6.084;2024-01-30T13:07:41;11.55;89.49
66144;SHT31;52947;50.842;6.084;2024-01-30T13:10:09;11.57;89.41
66144;SHT31;52947;50.842;6.084;2024-01-30T13:12:38;11.57;89.55
66144;SHT31;52947;50.842;6.084;2024-01-30T13:15:06;11.57;89.57
66144;SHT31;52947;50.842;6.084;2024-01-30T13:17:35;11.52;89.65
66144;SHT31;52947;50.842;6.084;2024-01-30T13:20:04;11.52;89.76
66144;SHT31;52947;50.842;6.084;2024-01-30T13:22:38;11.51;89.82
66144;SHT31;52947;50.842;6.084;2024-01-30T13:25:07;11.43;89.86
66144;SHT31;52947;50.842;6.084;2024-01-30T13:27:35;11.46;90.03
66144;SHT31;52947;50.842;6.084;2024-01-30T13:30:07;11.46;90.00
66144;SHT31;52947;50.842;6.084;2024-01-30T13:32:36;11.52;89.93
66144;SHT31;52947;50.842;6.084;2024-01-30T13:35:04;11.58;89.76
66144;SHT31;52947;50.842;6.084;2024-01-30T13:37:33;11.59;89.58
66144;SHT31;52947;50.842;6.084;2024-01-30T13:40:02;11.61;89.66
66144;SHT31;52947;50.842;6.084;2024-01-30T13:42:33;11.58;89.76
66144;SHT31;52947;50.842;6.084;2024-01-30T13:45:01;11.54;89.75
66144;SHT31;52947;50.842;6.084;2024-01-30T13:47:31;11.54;89.80
66144;SHT31;52947;50.842;6.084;2024-01-30T13:50:18;11.55;89.64
66144;SHT31;52947;50.842;6.084;2024-01-30T13:52:46;11.57;89.68
66144;SHT31;52947;50.842;6.084;2024-01-30T13:55:14;11.51;89.91
66144;SHT31;52947;50.842;6.084;2024-01-30T13:57:42;11.51;89.89
66144;SHT31;52947;50.842;6.084;2024-01-30T14:00:12;11.48;89.95
66144;SHT31;52947;50.842;6.084;2024-01-30T14:02:44;11.49;89.78
66144;SHT31;52947;50.842;6.084;2024-01-30T14:05:12;11.57;89.78
66144;SHT31;52947;50.842;6.084;2024-01-30T14:07:43;11.55;89.81
66144;SHT31;52947;50.842;6.084;2024-01-30T14:10:12;11.43;89.99
66144;SHT31;52947;50.842;6.084;2024-01-30T14:12:42;11.41;89.99
66144;SHT31;52947;50.842;6.084;2024-01-30T14:15:11;11.36;90.15
66144;SHT31;52947;50.842;6.084;2024-01-30T14:17:54;11.39;90.10
66144;SHT31;52947;50.842;6.084;2024-01-30T14:20:23;11.36;90.08
66144;SHT31;52947;50.842;6.084;2024-01-30T14:22:51;11.36;89.97
66144;SHT31;52947;50.842;6.084;2024-01-30T14:25:20;11.36;90.13
66144;SHT31;52947;50.842;6.084;2024-01-30T14:27:48;11.32;90.10
66144;SHT31;52947;50.842;6.084;2024-01-30T14:30:17;11.30;90.53
66144;SHT31;52947;50.842;6.084;2024-01-30T14:32:45;11.11;90.79
66144;SHT31;52947;50.842;6.084;2024-01-30T14:35:15;10.93;90.61
66144;SHT31;52947;50.842;6.084;2024-01-30T14:37:43;10.80;90.54
66144;SHT31;52947;50.842;6.084;2024-01-30T14:40:12;10.67;90.06
66144;SHT31;52947;50.842;6.084;2024-01-30T14:42:40;10.67;90.17
66144;SHT31;52947;50.842;6.084;2024-01-30T14:45:08;10.64;90.10
66144;SHT31;52947;50.842;6.084;2024-01-30T14:47:36;10.56;89.91
66144;SHT31;52947;50.842;6.084;2024-01-30T14:50:05;10.50;90.03
66144;SHT31;52947;50.842;6.084;2024-01-30T14:52:36;10.46;89.79
66144;SHT31;52947;50.842;6.084;2024-01-30T14:55:07;10.45;89.94
66144;SHT31;52947;50.842;6.084;2024-01-30T14:57:36;10.48;89.75
66144;SHT31;52947;50.842;6.084;2024-01-30T15:00:06;10.43;89.64
66144;SHT31;52947;50.842;6.084;2024-01-30T15:02:34;10.38;89.78
66144;SHT31;52947;50.842;6.084;2024-01-30T15:05:02;10.39;89.77
66144;SHT31;52947;50.842;6.084;2024-01-30T15:07:31;10.38;89.68
66144;SHT31;52947;50.842;6.084;2024-01-30T15:10:08;10.26;88.95
66144;SHT31;52947;50.842;6.084;2024-01-30T15:12:55;10.26;88.50
66144;SHT31;52947;50.842;6.084;2024-01-30T15:15:23;10.29;88.29
66144;SHT31;52947;50.842;6.084;2024-01-30T15:17:55;10.28;87.60
66144;SHT31;52947;50.842;6.084;2024-01-30T15:20:23;10.23;87.08
66144;SHT31;52947;50.842;6.084;2024-01-30T15:22:51;10.23;86.68
66144;SHT31;52947;50.842;6.084;2024-01-30T15:25:20;10.18;86.93
66144;SHT31;52947;50.842;6.084;2024-01-30T15:27:48;10.13;87.02
66144;SHT31;52947;50.842;6.084;2024-01-30T15:30:16;10.12;86.96
66144;SHT31;52947;50.842;6.084;2024-01-30T15:32:46;10.11;87.23
66144;SHT31;52947;50.842;6.084;2024-01-30T15:35:14;10.11;87.36
66144;SHT31;52947;50.842;6.084;2024-01-30T15:37:42;10.11;87.39
66144;SHT31;52947;50.842;6.084;2024-01-30T15:40:11;10.08;87.42